createdAt,value
2019-04-11T00:00:12.882Z,16.77
2019-04-11T00:02:42.439Z,16.83
2019-04-11T00:05:12.694Z,16.30
2019-04-11T00:07:42.543Z,17.37
2019-04-11T00:10:12.417Z,16.87
2019-04-11T00:12:42.970Z,17.23
2019-04-11T00:15:12.756Z,17.70
2019-04-11T00:17:42.296Z,17.13
2019-04-11T00:20:12.018Z,16.63
2019-04-11T00:22:41.601Z,16.87
2019-04-11T00:25:11.521Z,17.23
2019-04-11T00:27:41.348Z,17.13
2019-04-11T00:30:12.254Z,16.37
2019-04-11T00:32:42.036Z,17.47
2019-04-11T00:35:11.861Z,18.10
2019-04-11T00:37:41.435Z,17.37
2019-04-11T00:40:11.142Z,18.07
2019-04-11T00:42:40.966Z,16.73
2019-04-11T00:45:11.621Z,15.90
2019-04-11T00:47:41.565Z,16.90
2019-04-11T00:50:11.324Z,17.00
2019-04-11T00:52:41.292Z,18.00
2019-04-11T00:55:11.289Z,16.60
2019-04-11T00:57:41.134Z,15.37
2019-04-11T01:00:11.167Z,17.50
2019-04-11T01:02:42.261Z,21.73
2019-04-11T01:05:13.050Z,17.13
2019-04-11T01:07:42.905Z,17.73
2019-04-11T01:10:12.690Z,16.37
2019-04-11T01:12:42.951Z,17.23
2019-04-11T01:15:15.442Z,18.07
2019-04-11T01:17:47.516Z,16.80
2019-04-11T01:20:17.473Z,17.60
2019-04-11T01:22:47.066Z,18.50
2019-04-11T01:25:16.759Z,17.97
2019-04-11T01:27:46.466Z,17.10
2019-04-11T01:30:20.674Z,17.43
2019-04-11T01:32:50.654Z,17.20
2019-04-11T01:35:21.348Z,17.90
2019-04-11T01:37:50.958Z,16.17
2019-04-11T01:40:21.352Z,18.40
2019-04-11T01:42:51.351Z,17.17
2019-04-11T01:45:22.848Z,17.33
2019-04-11T01:47:57.395Z,17.40
2019-04-11T01:50:29.252Z,17.93
2019-04-11T01:52:58.952Z,17.73
2019-04-11T01:55:28.565Z,17.77
2019-04-11T01:57:58.356Z,18.07
2019-04-11T02:00:32.341Z,17.47
2019-04-11T02:03:03.539Z,16.17
2019-04-11T02:05:34.967Z,22.30
2019-04-11T02:08:04.678Z,17.17
2019-04-11T02:10:35.001Z,16.90
2019-04-11T02:13:05.721Z,16.23
2019-04-11T02:15:36.825Z,17.53
2019-04-11T02:18:07.561Z,16.53
2019-04-11T02:20:38.778Z,17.77
2019-04-11T02:23:20.080Z,17.37
2019-04-11T02:26:05.020Z,17.30
2019-04-11T02:28:34.936Z,17.50
2019-04-11T02:31:05.567Z,16.83
2019-04-11T02:33:37.098Z,17.13
2019-04-11T02:36:07.915Z,16.90
2019-04-11T02:38:39.110Z,16.33
2019-04-11T02:41:10.565Z,18.13
2019-04-11T02:43:44.219Z,18.03
2019-04-11T02:46:23.518Z,17.47
2019-04-11T02:48:44.945Z,16.47
2019-04-11T02:51:15.452Z,17.50
2019-04-11T02:53:45.270Z,17.47
2019-04-11T02:56:17.309Z,16.30
2019-04-11T02:58:48.266Z,18.13
2019-04-11T03:01:18.015Z,15.97
2019-04-11T03:04:14.899Z,17.27
2019-04-11T03:06:45.770Z,17.47
2019-04-11T03:09:17.578Z,16.30
2019-04-11T03:11:47.370Z,16.30
2019-04-11T03:14:20.623Z,17.50
2019-04-11T03:16:59.711Z,15.80
2019-04-11T03:19:37.618Z,17.27
2019-04-11T03:21:54.565Z,15.93
2019-04-11T03:24:26.377Z,19.20
2019-04-11T03:26:58.238Z,16.67
2019-04-11T03:29:29.333Z,17.33
2019-04-11T03:32:37.120Z,16.30
2019-04-11T03:35:20.524Z,16.90
2019-04-11T03:39:57.194Z,18.13
2019-04-11T03:42:20.453Z,17.73
2019-04-11T03:44:44.092Z,17.07
2019-04-11T03:47:23.769Z,17.23
2019-04-11T03:49:51.014Z,16.67
2019-04-11T03:52:17.207Z,17.03
2019-04-11T03:54:47.709Z,17.67
2019-04-11T03:57:18.099Z,17.97
2019-04-11T03:59:48.069Z,17.40
2019-04-11T04:02:17.975Z,16.53
2019-04-11T04:04:49.379Z,15.43
2019-04-11T04:07:21.378Z,17.33
2019-04-11T04:09:51.906Z,18.40
2019-04-11T04:12:24.095Z,18.93
2019-04-11T04:14:54.036Z,17.10
2019-04-11T04:17:33.028Z,16.47
2019-04-11T04:20:15.234Z,18.13
2019-04-11T04:22:56.628Z,15.63
2019-04-11T04:25:28.444Z,17.37
2019-04-11T04:27:58.920Z,19.53
2019-04-11T04:30:29.798Z,18.27
2019-04-11T04:33:00.604Z,16.73
2019-04-11T04:35:33.668Z,16.67
2019-04-11T04:38:05.182Z,17.23
2019-04-11T04:40:51.033Z,15.77
2019-04-11T04:43:10.376Z,16.40
2019-04-11T04:46:01.676Z,16.93
2019-04-11T04:48:14.294Z,15.93
2019-04-11T04:50:42.568Z,16.53
2019-04-11T04:53:13.592Z,16.97
2019-04-11T04:55:43.669Z,15.87
2019-04-11T04:58:15.781Z,16.10
2019-04-11T05:00:45.964Z,17.47
2019-04-11T05:03:15.935Z,17.83
2019-04-11T05:05:46.554Z,16.60
2019-04-11T05:08:16.617Z,16.23
2019-04-11T05:10:47.061Z,15.40
2019-04-11T05:13:17.246Z,16.70
2019-04-11T05:15:46.990Z,15.13
2019-04-11T05:18:18.009Z,15.03
2019-04-11T05:20:48.281Z,14.90
2019-04-11T05:23:18.037Z,15.03
2019-04-11T05:25:47.632Z,15.80
2019-04-11T05:28:17.149Z,15.17
2019-04-11T05:30:46.961Z,14.63
2019-04-11T05:33:17.824Z,15.23
2019-04-11T05:35:48.029Z,16.47
2019-04-11T05:38:18.639Z,15.53
2019-04-11T05:40:48.435Z,25.03
2019-04-11T05:43:18.006Z,14.70
2019-04-11T05:45:48.527Z,14.70
2019-04-11T05:48:25.561Z,14.23
2019-04-11T05:50:54.487Z,15.70
2019-04-11T05:53:25.014Z,14.73
2019-04-11T05:55:55.330Z,15.00
2019-04-11T05:58:26.479Z,14.57
2019-04-11T06:01:01.317Z,14.43
2019-04-11T06:03:32.234Z,14.37
2019-04-11T06:06:18.835Z,14.13
2019-04-11T06:08:49.660Z,14.53
2019-04-11T06:11:30.612Z,14.80
2019-04-11T06:14:05.800Z,14.27
2019-04-11T06:16:43.590Z,17.37
2019-04-11T06:19:16.511Z,14.23
2019-04-11T06:21:53.381Z,14.70
2019-04-11T06:24:30.071Z,13.73
2019-04-11T06:27:01.471Z,13.87
2019-04-11T06:29:32.736Z,13.47
2019-04-11T06:32:21.469Z,13.60
2019-04-11T06:34:52.920Z,13.53
2019-04-11T06:37:41.347Z,13.87
2019-04-11T06:40:12.987Z,12.37
2019-04-11T06:42:44.204Z,14.27
2019-04-11T06:45:15.635Z,13.13
2019-04-11T06:47:47.866Z,13.17
2019-04-11T06:50:25.145Z,12.90
2019-04-11T06:52:54.816Z,13.73
2019-04-11T06:55:35.064Z,12.90
2019-04-11T06:58:06.800Z,13.57
2019-04-11T07:00:39.090Z,12.73
2019-04-11T07:03:18.769Z,13.50
2019-04-11T07:05:40.634Z,13.33
2019-04-11T07:08:10.684Z,18.13
2019-04-11T07:10:51.169Z,13.37
2019-04-11T07:13:22.761Z,12.77
2019-04-11T07:15:52.851Z,12.40
2019-04-11T07:18:37.824Z,12.60
2019-04-11T07:21:10.765Z,16.83
2019-04-11T07:23:59.732Z,14.93
2019-04-11T07:26:30.926Z,14.43
2019-04-11T07:29:08.638Z,13.33
2019-04-11T07:31:50.334Z,12.37
2019-04-11T07:34:39.769Z,12.17
2019-04-11T07:37:26.277Z,13.27
2019-04-11T07:40:03.306Z,13.10
2019-04-11T07:42:49.633Z,12.63
2019-04-11T07:45:37.674Z,12.40
2019-04-11T07:48:17.897Z,13.13
2019-04-11T07:50:48.676Z,11.93
2019-04-11T07:53:19.959Z,12.40
2019-04-11T07:55:51.018Z,16.57
2019-04-11T07:58:30.756Z,12.33
2019-04-11T08:01:16.964Z,12.40
2019-04-11T08:03:57.929Z,12.03
2019-04-11T08:06:34.894Z,12.03
2019-04-11T08:09:24.468Z,10.60
2019-04-11T08:11:56.213Z,11.33
2019-04-11T08:14:33.417Z,10.90
2019-04-11T08:17:04.628Z,10.50
2019-04-11T08:19:47.505Z,11.50
2019-04-11T08:22:21.540Z,11.40
2019-04-11T08:24:58.754Z,13.67
2019-04-11T08:27:29.995Z,13.80
2019-04-11T08:30:02.667Z,10.33
2019-04-11T08:32:38.085Z,10.77
2019-04-11T08:35:12.206Z,11.17
2019-04-11T08:37:44.007Z,12.63
2019-04-11T08:40:15.570Z,18.03
2019-04-11T08:42:57.012Z,9.70
2019-04-11T08:45:28.374Z,10.23
2019-04-11T08:48:00.282Z,10.10
2019-04-11T08:50:31.638Z,9.83
2019-04-11T08:53:16.291Z,9.97
2019-04-11T08:55:53.639Z,9.00
2019-04-11T08:58:20.555Z,9.43
2019-04-11T09:01:00.823Z,12.00
2019-04-11T09:03:34.527Z,9.00
2019-04-11T09:06:12.554Z,9.93
2019-04-11T09:09:00.042Z,8.87
2019-04-11T09:11:33.058Z,8.93
2019-04-11T09:14:08.146Z,8.97
2019-04-11T09:16:45.803Z,9.40
2019-04-11T09:19:27.265Z,9.00
2019-04-11T09:22:11.631Z,8.83
2019-04-11T09:24:43.163Z,8.90
2019-04-11T09:27:31.544Z,9.20
2019-04-11T09:30:02.372Z,9.03
2019-04-11T09:32:50.743Z,8.03
2019-04-11T09:35:20.182Z,8.83
2019-04-11T09:37:49.774Z,9.97
2019-04-11T09:40:37.425Z,8.37
2019-04-11T09:43:22.020Z,11.47
2019-04-11T09:46:06.140Z,7.83
2019-04-11T09:48:53.871Z,7.47
2019-04-11T09:51:28.656Z,8.03
2019-04-11T09:53:59.207Z,7.67
2019-04-11T09:56:39.725Z,8.60
2019-04-11T09:59:14.335Z,8.20
2019-04-11T10:02:03.745Z,8.47
2019-04-11T10:04:36.018Z,6.90
2019-04-11T10:07:23.770Z,8.90
2019-04-11T10:10:02.623Z,7.70
2019-04-11T10:12:38.343Z,7.13
2019-04-11T10:15:13.522Z,6.97
2019-04-11T10:17:48.479Z,7.10
2019-04-11T10:20:20.356Z,6.67
2019-04-11T10:23:08.292Z,6.97
2019-04-11T10:25:39.433Z,6.40
2019-04-11T10:28:19.609Z,7.43
2019-04-11T10:30:50.275Z,7.93
2019-04-11T10:33:24.767Z,7.03
2019-04-11T10:36:02.932Z,6.87
2019-04-11T10:38:33.421Z,8.70
2019-04-11T10:41:10.754Z,8.43
2019-04-11T10:43:40.461Z,7.03
2019-04-11T10:46:15.221Z,6.97
2019-04-11T10:48:47.456Z,7.87
2019-04-11T10:51:25.507Z,7.30
2019-04-11T10:53:57.541Z,7.27
2019-04-11T10:56:44.737Z,8.03
2019-04-11T10:59:15.476Z,7.47
2019-04-11T11:01:52.703Z,7.50
2019-04-11T11:04:29.733Z,8.03
2019-04-11T11:07:02.230Z,7.80
2019-04-11T11:09:42.286Z,8.50
2019-04-11T11:12:29.737Z,8.57
2019-04-11T11:15:01.508Z,7.50
2019-04-11T11:18:20.638Z,7.80
2019-04-11T11:20:41.554Z,7.47
2019-04-11T11:23:27.218Z,7.23
2019-04-11T11:25:59.147Z,13.10
2019-04-11T11:28:30.383Z,7.07
2019-04-11T11:31:08.459Z,7.90
2019-04-11T11:33:38.660Z,7.27
2019-04-11T11:36:19.392Z,7.27
2019-04-11T11:39:06.829Z,7.27
2019-04-11T11:41:54.552Z,8.80
2019-04-11T11:44:25.872Z,8.47
2019-04-11T11:47:15.525Z,6.80
2019-04-11T11:49:54.644Z,6.33
2019-04-11T11:52:19.233Z,6.80
2019-04-11T11:54:48.871Z,6.90
2019-04-11T11:57:20.434Z,7.70
2019-04-11T11:59:52.403Z,6.90
2019-04-11T12:02:26.437Z,6.97
2019-04-11T12:04:57.630Z,7.83
2019-04-11T12:07:33.742Z,6.47
2019-04-11T12:10:13.240Z,6.83
2019-04-11T12:12:46.457Z,6.57
2019-04-11T12:15:35.057Z,6.20
2019-04-11T12:18:15.808Z,12.83
2019-04-11T12:20:49.357Z,10.57
2019-04-11T12:23:29.576Z,7.77
2019-04-11T12:25:59.527Z,6.27
2019-04-11T12:28:46.443Z,6.37
2019-04-11T12:31:16.012Z,6.50
2019-04-11T12:34:03.339Z,6.70
2019-04-11T12:36:34.775Z,6.37
2019-04-11T12:39:08.694Z,6.23
2019-04-11T12:41:42.845Z,6.80
2019-04-11T12:44:30.457Z,6.53
2019-04-11T12:47:13.757Z,7.20
2019-04-11T12:49:52.939Z,7.07
2019-04-11T12:52:38.190Z,8.13
2019-04-11T12:55:16.116Z,7.13
2019-04-11T12:58:03.463Z,7.53
2019-04-11T13:00:32.801Z,6.47
2019-04-11T13:03:07.594Z,7.77
2019-04-11T13:05:38.821Z,7.40
2019-04-11T13:08:12.685Z,8.47
2019-04-11T13:10:43.797Z,7.73
2019-04-11T13:13:13.209Z,7.67
2019-04-11T13:15:44.436Z,8.03
2019-04-11T13:18:29.144Z,10.50
2019-04-11T13:21:06.850Z,9.07
2019-04-11T13:23:54.073Z,9.20
2019-04-11T13:26:40.732Z,8.90
2019-04-11T13:29:12.990Z,9.23
2019-04-11T13:32:00.384Z,9.50
2019-04-11T13:34:30.837Z,9.50
2019-04-11T13:37:00.229Z,9.77
2019-04-11T13:39:29.805Z,9.60
2019-04-11T13:42:17.215Z,9.67
2019-04-11T13:44:47.102Z,8.93
2019-04-11T13:47:16.455Z,9.53
2019-04-11T13:49:47.969Z,10.33
2019-04-11T13:52:22.285Z,10.13
2019-04-11T13:54:59.252Z,9.63
2019-04-11T13:57:30.832Z,9.97
2019-04-11T14:00:18.377Z,10.83
2019-04-11T14:02:52.479Z,10.43
2019-04-11T14:05:22.691Z,10.20
2019-04-11T14:07:53.107Z,10.47
2019-04-11T14:10:23.370Z,10.13
2019-04-11T14:12:57.046Z,10.27
2019-04-11T14:15:29.781Z,8.93
2019-04-11T14:18:01.063Z,9.60
2019-04-11T14:20:46.579Z,8.60
2019-04-11T14:23:21.726Z,8.43
2019-04-11T14:26:01.800Z,8.63
2019-04-11T14:28:35.963Z,7.72
2019-04-11T14:31:23.490Z,7.97
2019-04-11T14:33:55.973Z,8.28
2019-04-11T14:36:33.472Z,7.25
2019-04-11T14:39:02.725Z,6.87
2019-04-11T14:41:32.342Z,7.60
2019-04-11T14:44:03.627Z,7.60
2019-04-11T14:46:52.808Z,7.30
2019-04-11T14:49:22.364Z,7.62
2019-04-11T14:52:03.691Z,6.60
2019-04-11T14:54:34.960Z,6.72
2019-04-11T14:57:06.421Z,7.10
2019-04-11T14:59:40.382Z,7.62
2019-04-11T15:02:09.865Z,6.97
2019-04-11T15:04:43.702Z,7.83
2019-04-11T15:07:15.548Z,7.35
2019-04-11T15:09:46.798Z,6.50
2019-04-11T15:12:18.441Z,8.85
2019-04-11T15:14:56.590Z,6.75
2019-04-11T15:17:33.777Z,6.58
2019-04-11T15:20:07.817Z,7.25
2019-04-11T15:22:44.953Z,6.37
2019-04-11T15:25:26.263Z,5.70
2019-04-11T15:27:58.412Z,6.10
2019-04-11T15:30:43.377Z,6.47
2019-04-11T15:33:30.492Z,5.78
2019-04-11T15:36:01.699Z,6.80
2019-04-11T15:38:41.430Z,6.10
2019-04-11T15:41:12.714Z,6.37
2019-04-11T15:43:59.917Z,5.90
2019-04-11T15:46:31.130Z,6.50
2019-04-11T15:49:21.946Z,5.83
2019-04-11T15:51:51.381Z,5.95
2019-04-11T15:54:38.676Z,6.15
2019-04-11T15:57:13.423Z,5.47
2019-04-11T15:59:44.678Z,6.12
2019-04-11T16:02:16.808Z,7.45
2019-04-11T16:04:46.153Z,6.45
2019-04-11T16:07:29.946Z,5.17
2019-04-11T16:10:01.140Z,5.60
2019-04-11T16:12:30.492Z,5.65
2019-04-11T16:15:01.697Z,6.03
2019-04-11T16:17:36.884Z,6.00
2019-04-11T16:20:09.735Z,5.75
2019-04-11T16:22:39.068Z,6.37
2019-04-11T16:25:12.013Z,6.95
2019-04-11T16:27:49.370Z,6.87
2019-04-11T16:30:22.661Z,7.53
2019-04-11T16:33:06.658Z,7.67
2019-04-11T16:35:42.170Z,7.30
2019-04-11T16:38:29.456Z,8.47
2019-04-11T16:41:04.595Z,8.40
2019-04-11T16:43:34.155Z,7.50
2019-04-11T16:46:24.622Z,8.33
2019-04-11T16:48:55.655Z,8.27
2019-04-11T16:51:30.756Z,8.47
2019-04-11T16:53:55.147Z,8.00
2019-04-11T16:56:24.795Z,7.80
2019-04-11T16:58:54.370Z,8.00
2019-04-11T17:01:23.940Z,7.87
2019-04-11T17:03:55.119Z,7.80
2019-04-11T17:06:27.549Z,8.23
2019-04-11T17:09:07.416Z,8.07
2019-04-11T17:11:37.060Z,8.10
2019-04-11T17:14:06.693Z,8.60
2019-04-11T17:16:36.352Z,8.83
2019-04-11T17:19:06.279Z,8.20
2019-04-11T17:21:43.033Z,8.53
2019-04-11T17:24:07.170Z,8.60
2019-04-11T17:26:36.737Z,8.40
2019-04-11T17:29:06.310Z,8.23
2019-04-11T17:31:35.891Z,9.60
2019-04-11T17:34:05.792Z,7.90
2019-04-11T17:36:35.381Z,8.03
2019-04-11T17:39:07.690Z,7.70
2019-04-11T17:41:37.399Z,8.03
2019-04-11T17:44:07.049Z,8.60
2019-04-11T17:46:36.613Z,7.77
2019-04-11T17:49:06.218Z,8.00
2019-04-11T17:51:35.760Z,7.73
2019-04-11T17:54:05.405Z,8.17
2019-04-11T17:56:34.972Z,8.17
2019-04-11T17:59:04.547Z,7.90
2019-04-11T18:01:37.809Z,8.10
2019-04-11T18:04:05.651Z,7.57
2019-04-11T18:06:35.779Z,8.73
2019-04-11T18:09:10.269Z,7.47
2019-04-11T18:11:40.292Z,7.23
2019-04-11T18:14:09.857Z,10.40
2019-04-11T18:16:39.434Z,7.30
2019-04-11T18:19:09.886Z,7.30
2019-04-11T18:21:39.558Z,7.33
2019-04-11T18:24:09.659Z,7.10
2019-04-11T18:26:39.451Z,6.90
2019-04-11T18:29:09.009Z,7.20
2019-04-11T18:31:38.587Z,6.70
2019-04-11T18:34:08.154Z,6.87
2019-04-11T18:36:37.800Z,6.87
2019-04-11T18:39:08.398Z,8.13
2019-04-11T18:41:37.971Z,7.50
2019-04-11T18:44:07.910Z,7.17
2019-04-11T18:46:37.467Z,6.30
2019-04-11T18:49:07.249Z,8.03
2019-04-11T18:51:36.819Z,6.90
2019-04-11T18:54:07.790Z,8.37
2019-04-11T18:56:38.221Z,7.47
2019-04-11T18:59:07.926Z,7.20
2019-04-11T19:01:39.834Z,6.60
2019-04-11T19:04:12.016Z,6.90
2019-04-11T19:06:43.031Z,6.73
2019-04-11T19:09:14.851Z,8.83
2019-04-11T19:11:46.246Z,9.30
2019-04-11T19:14:16.617Z,7.30
2019-04-11T19:16:46.870Z,6.33
2019-04-11T19:19:18.582Z,6.90
2019-04-11T19:21:50.750Z,8.27
2019-04-11T19:24:19.014Z,7.37
2019-04-11T19:26:48.770Z,6.53
2019-04-11T19:29:19.268Z,6.73
2019-04-11T19:31:48.825Z,7.17
2019-04-11T19:34:18.399Z,9.87
2019-04-11T19:36:48.020Z,7.43
2019-04-11T19:39:18.669Z,7.70
2019-04-11T19:41:48.663Z,8.03
2019-04-11T19:44:19.317Z,6.80
2019-04-11T19:46:50.949Z,6.67
2019-04-11T19:49:20.837Z,6.67
2019-04-11T19:51:50.962Z,9.20
2019-04-11T19:54:20.701Z,6.77
2019-04-11T19:57:06.375Z,6.80
2019-04-11T19:59:35.934Z,8.97
2019-04-11T20:02:06.016Z,7.00
2019-04-11T20:04:35.577Z,8.10
2019-04-11T20:07:05.196Z,8.83
2019-04-11T20:09:34.773Z,6.17
2019-04-11T20:12:04.325Z,7.23
2019-04-11T20:14:34.860Z,8.43
2019-04-11T20:17:04.715Z,6.37
2019-04-11T20:19:34.263Z,7.07
2019-04-11T20:22:08.213Z,7.00
2019-04-11T20:24:35.102Z,6.87
2019-04-11T20:27:04.668Z,7.90
2019-04-11T20:29:34.233Z,6.67
2019-04-11T20:32:03.784Z,8.33
2019-04-11T20:34:33.389Z,6.47
2019-04-11T20:37:02.943Z,6.60
2019-04-11T20:39:32.571Z,6.90
2019-04-11T20:42:02.129Z,7.13
2019-04-11T20:44:34.351Z,6.60
2019-04-11T20:47:03.914Z,6.30
2019-04-11T20:49:35.131Z,7.07
2019-04-11T20:52:04.678Z,7.23
2019-04-11T20:54:35.960Z,6.30
2019-04-11T20:57:05.521Z,6.93
2019-04-11T20:59:35.277Z,6.70
2019-04-11T21:02:04.909Z,6.30
2019-04-11T21:04:35.939Z,6.93
2019-04-11T21:07:05.995Z,6.50
2019-04-11T21:09:35.630Z,6.33
2019-04-11T21:12:07.588Z,5.83
2019-04-11T21:14:37.094Z,8.00
2019-04-11T21:17:08.145Z,6.07
2019-04-11T21:19:37.710Z,6.57
2019-04-11T21:22:07.306Z,6.67
2019-04-11T21:24:37.146Z,6.27
2019-04-11T21:27:07.066Z,6.57
2019-04-11T21:29:36.629Z,6.40
2019-04-11T21:32:06.182Z,5.87
2019-04-11T21:34:35.746Z,7.13
2019-04-11T21:37:07.100Z,5.97
2019-04-11T21:39:36.666Z,6.50
2019-04-11T21:42:06.727Z,6.47
2019-04-11T21:44:36.877Z,6.43
2019-04-11T21:47:07.313Z,7.13
2019-04-11T21:49:37.770Z,6.20
2019-04-11T21:52:07.438Z,6.50
2019-04-11T21:54:37.216Z,6.67
2019-04-11T21:57:06.795Z,5.60
2019-04-11T21:59:36.353Z,6.33
2019-04-11T22:02:08.257Z,6.33
2019-04-11T22:04:37.819Z,6.57
2019-04-11T22:07:07.367Z,6.63
2019-04-11T22:09:37.005Z,6.07
2019-04-11T22:12:08.775Z,5.97
2019-04-11T22:14:41.337Z,6.20
2019-04-11T22:17:09.712Z,6.43
2019-04-11T22:19:39.281Z,7.17
2019-04-11T22:22:08.903Z,6.53
2019-04-11T22:24:38.459Z,5.90
2019-04-11T22:27:08.025Z,6.57
2019-04-11T22:29:37.590Z,6.17
2019-04-11T22:32:07.158Z,6.67
2019-04-11T22:34:38.346Z,6.43
2019-04-11T22:37:07.914Z,5.70
2019-04-11T22:39:37.469Z,6.10
2019-04-11T22:42:07.104Z,6.50
2019-04-11T22:44:38.088Z,6.23
2019-04-11T22:47:08.606Z,6.07
2019-04-11T22:49:39.365Z,6.40
2019-04-11T22:52:11.361Z,6.23
2019-04-11T22:54:41.781Z,7.10
2019-04-11T22:57:12.105Z,6.80
2019-04-11T22:59:44.971Z,7.13
2019-04-11T23:02:18.316Z,6.80
2019-04-11T23:04:47.970Z,6.47
2019-04-11T23:07:17.910Z,6.40
2019-04-11T23:09:49.079Z,6.40
2019-04-11T23:12:19.172Z,6.30
2019-04-11T23:14:48.724Z,6.93
2019-04-11T23:17:18.546Z,6.57
2019-04-11T23:19:48.045Z,6.73
2019-04-11T23:22:17.624Z,9.13
2019-04-11T23:24:47.231Z,6.10
2019-04-11T23:27:16.803Z,7.07
2019-04-11T23:29:47.170Z,6.73
2019-04-11T23:32:21.003Z,7.73
2019-04-11T23:34:52.649Z,7.53
2019-04-11T23:37:21.744Z,6.70
2019-04-11T23:39:51.738Z,7.03
2019-04-11T23:42:21.413Z,7.17
2019-04-11T23:44:51.273Z,6.70
2019-04-11T23:47:23.026Z,7.23
2019-04-11T23:49:55.122Z,7.13
2019-04-11T23:52:26.410Z,6.50
2019-04-11T23:54:54.763Z,9.00
2019-04-11T23:57:24.322Z,6.87
2019-04-11T23:59:53.891Z,7.20
